Portada
METAR-TAF:

METAR-TAF

Aeropuertos :

Tri-Township Airport

Savanna, Illinois, Estados Unidos

latitud: 42-02-45N, longitud: 090-06-28W, altitud: 188 m

Observación

El informe se hizo hace 27 minutos, a las 07:15 UTC
Viento calma
Temperatura 10°C
Humedad 82%
Presión 1025 hPa
Visibilidad: 16.1 km
Cielo despejado

METAR: KSFY 310715Z AUTO 00000KT 10SM CLR 10/07 A3028 RMK AO2

Hora: 02:42 (07:42 UTC)


TAF: falta

Observaciones y pronósticos meteorológicos de más de 4000 aeropuertos (mensajes METAR y TAF).

Los puntos amarillos y rojos representan las estaciones disponibles.

Ponga el ratón en el punto deseado para ver el nombre de la estación.

Haga clic para ver las observaciones y los pronósticos meteorológicos.

Para cambiar el mapa : haga clic en los botones verdes con una cruz de color negro para hacer un zoom, en el botón verde con un guión para alejar o en las flechas verdes para mapas adyacentes.


METAR-TAF: